Columbia Gorge Regional the Dalles Municipal Airport
KDLS : now visible

Airfield :











YOU CAN JOIN US ON...

 
LOGIN :

Register | Disclaimer

   EN    FR    IT 

 









Legend :    VFR   Marginal VFR   IFR   Intensive IFR   Very Intensive IFR
Visi :
Ceiling :
>= 8 km
>= 3000ft
5 to 8 km
1000 to 3000 ft
1500m to 5 km
500 to 1000 ft
800 to 1500m
200 to 500 ft
< 800m
< 200 ft
Symbols :   Thunderstorms  Fog  Heavy snow  Heavy precipitations  Wind > 20 kt







- Airport Elevation : 247 ft


KDLS - Columbia Gorge Regional the Dalles Municipal

CURRENT METAR :
  • 211053Z AUTO 00000KT 10SM OVC090 10/07 A2967 RMK AO2 SLP048 T01000072

EXPIRED METARs :
  • 210953Z AUTO 21004KT 10SM FEW065 OVC085 10/08 A2967 RMK AO2 SLP047 T01000078
  • 210853Z AUTO 00000KT 10SM FEW075 OVC100 10/08 A2968 RMK AO2 SLP052 T01000078 58006

TAF KDLS
Valid from the 21 at 06:00 until the 22 at 06:00 UTC


210538Z 2106/2206 VRB05KT P6SM -SHRA BKN070 OVC090
FM211300 32010KT P6SM VCSH BKN070 OVC120
FM212000 32014G20KT P6SM -SHRA BKN040 OVC070
FM220300 31011KT P6SM BKN060 OVC080
KZSE FIR / North America



MET'MAP, your aeronautical weather chart ! - Copyright ORBIFLY December 2007 - Disclaimer

ORBIFLY MET'MAP TEAM :

Programming & Development : Alexandra Zaïnal
Concept & Development : Baudouin d'Aumeries
Co-Development & Prog : Marc-Olivier Méhu
Technical & hardware support : Manuel Goepfert

Contact : metmap@orbifly.com




SOURCES & CREDITS :

   NOAA       Earth
Advisory